createdAt,value
2023-05-05T00:01:23.047Z,5.76
2023-05-05T00:04:22.763Z,5.42
2023-05-05T00:07:19.199Z,4.82
2023-05-05T00:10:14.728Z,6.4
2023-05-05T00:13:11.455Z,4.92
2023-05-05T00:16:07.854Z,5.74
2023-05-05T00:19:06.410Z,4.3
2023-05-05T00:22:03.013Z,5.660000000000001
2023-05-05T00:24:58.511Z,5.38
2023-05-05T00:27:54.069Z,4.540000000000001
2023-05-05T00:30:50.729Z,3.5799999999999996
2023-05-05T00:33:46.265Z,3.0599999999999996
2023-05-05T00:36:41.762Z,4.18
2023-05-05T00:39:37.311Z,3.22
2023-05-05T00:42:37.872Z,2.94
2023-05-05T00:45:33.449Z,3.1
2023-05-05T00:48:32.003Z,3.5799999999999996
2023-05-05T00:51:28.581Z,2.7400000000000007
2023-05-05T00:54:26.105Z,3.0200000000000005
2023-05-05T00:57:23.685Z,2.72
2023-05-05T01:00:23.212Z,2.96
2023-05-05T01:03:18.910Z,3.38
2023-05-05T01:06:26.308Z,2.72
2023-05-05T01:09:32.851Z,2.7800000000000002
2023-05-05T01:12:37.434Z,3.2400000000000007
2023-05-05T01:15:41.954Z,3.12
2023-05-05T01:18:45.422Z,3.8200000000000003
2023-05-05T01:21:47.016Z,3.8
2023-05-05T01:24:54.556Z,3.56
2023-05-05T01:28:03.089Z,3.28
2023-05-05T01:31:14.622Z,4.16
2023-05-05T01:34:17.138Z,3.2199999999999998
2023-05-05T01:37:18.658Z,3.5799999999999996
2023-05-05T01:40:16.254Z,3.1399999999999997
2023-05-05T01:43:17.804Z,3.28
2023-05-05T01:46:16.484Z,3.1800000000000006
2023-05-05T01:49:13.893Z,3.2400000000000007
2023-05-05T01:52:11.481Z,3.2
2023-05-05T01:55:08.030Z,3.1799999999999997
2023-05-05T01:58:05.568Z,3.3600000000000003
2023-05-05T02:01:02.274Z,3.54
2023-05-05T02:04:01.824Z,3.16
2023-05-05T02:07:01.231Z,3.46
2023-05-05T02:09:59.795Z,3.16
2023-05-05T02:12:56.439Z,3.6800000000000006
2023-05-05T02:15:53.910Z,3.44
2023-05-05T02:18:51.459Z,3.6799999999999997
2023-05-05T02:21:48.979Z,2.7600000000000002
2023-05-05T02:24:44.575Z,4.119999999999999
2023-05-05T02:27:44.126Z,3.7
2023-05-05T02:30:43.797Z,4.339999999999999
2023-05-05T02:33:43.257Z,5.220000000000001
2023-05-05T02:36:44.798Z,4.5200000000000005
2023-05-05T02:39:51.330Z,5.4799999999999995
2023-05-05T02:42:52.903Z,4.96
2023-05-05T02:45:50.430Z,4
2023-05-05T02:48:46.007Z,3.88
2023-05-05T02:51:41.530Z,3.9200000000000004
2023-05-05T02:54:37.128Z,3.66
2023-05-05T02:57:36.657Z,3.62
2023-05-05T03:00:41.194Z,4
2023-05-05T03:03:49.920Z,6.179999999999999
2023-05-05T03:06:51.295Z,5.8
2023-05-05T03:09:54.820Z,4.62
2023-05-05T03:12:54.354Z,4.840000000000001
2023-05-05T03:15:52.917Z,5.16
2023-05-05T03:18:50.443Z,5.4
2023-05-05T03:21:48.032Z,5.319999999999999
2023-05-05T03:24:49.644Z,5.119999999999999
2023-05-05T03:27:45.129Z,5.220000000000001
2023-05-05T03:30:42.701Z,4.64
2023-05-05T03:33:39.247Z,4.3
2023-05-05T03:36:35.838Z,4.82
2023-05-05T03:39:31.361Z,4.119999999999999
2023-05-05T03:42:26.902Z,4.24
2023-05-05T03:45:24.490Z,4.5200000000000005
2023-05-05T03:48:20.048Z,4.52
2023-05-05T03:51:16.615Z,5.1
2023-05-05T03:54:13.216Z,4.08
2023-05-05T03:57:08.733Z,4.459999999999999
2023-05-05T04:00:05.386Z,4.4
2023-05-05T04:03:00.998Z,4.220000000000001
2023-05-05T04:05:56.421Z,4.040000000000001
2023-05-05T04:08:51.943Z,4.3
2023-05-05T04:11:47.518Z,3.5799999999999996
2023-05-05T04:14:43.134Z,4.6
2023-05-05T04:17:38.727Z,5.279999999999999
2023-05-05T04:20:36.221Z,5.5200000000000005
2023-05-05T04:23:32.057Z,6.62
2023-05-05T04:26:27.345Z,6.92
2023-05-05T04:29:22.926Z,6.9799999999999995
2023-05-05T04:32:18.457Z,9.879999999999999
2023-05-05T04:35:14.046Z,9.3
2023-05-05T04:38:09.557Z,5.639999999999999
2023-05-05T04:41:06.176Z,5.839999999999999
2023-05-05T04:44:01.765Z,4.12
2023-05-05T04:46:57.538Z,4.7
2023-05-05T04:49:53.819Z,4.9
2023-05-05T04:52:51.415Z,5.619999999999999
2023-05-05T04:55:47.956Z,4.540000000000001
2023-05-05T04:58:43.502Z,4.44
2023-05-05T05:01:39.143Z,4.340000000000001
2023-05-05T05:04:34.642Z,4.959999999999999
2023-05-05T05:07:31.217Z,4.360000000000001
2023-05-05T05:10:27.750Z,5.040000000000001
2023-05-05T05:13:23.332Z,4.8
2023-05-05T05:16:18.922Z,4.9
2023-05-05T05:19:14.488Z,6.1
2023-05-05T05:22:09.980Z,5.92
2023-05-05T05:25:06.567Z,5.220000000000001
2023-05-05T05:28:10.138Z,6.0600000000000005
2023-05-05T05:31:02.653Z,5.3999999999999995
2023-05-05T05:33:58.207Z,6.220000000000001
2023-05-05T05:36:53.739Z,5.48
2023-05-05T05:39:52.354Z,6.139999999999999
2023-05-05T05:42:47.890Z,6.88
2023-05-05T05:45:43.503Z,7.42
2023-05-05T05:48:39.085Z,7.4
2023-05-05T05:51:34.610Z,6.580000000000001
2023-05-05T05:54:34.142Z,5.720000000000001
2023-05-05T05:57:30.733Z,6.339999999999999
2023-05-05T06:00:27.263Z,7.340000000000001
2023-05-05T06:03:23.104Z,7.0200000000000005
2023-05-05T06:06:18.430Z,6.9799999999999995
2023-05-05T06:09:13.945Z,7.340000000000001
2023-05-05T06:12:09.535Z,6.840000000000001
2023-05-05T06:15:06.046Z,6.6
2023-05-05T06:18:01.676Z,7.220000000000001
2023-05-05T06:20:57.175Z,8.360000000000001
2023-05-05T06:23:53.751Z,7.340000000000001
2023-05-05T06:26:49.285Z,7.639999999999999
2023-05-05T06:29:44.872Z,8.02
2023-05-05T06:32:40.476Z,7.62
2023-05-05T06:35:35.989Z,6.380000000000001
2023-05-05T06:38:32.526Z,7.500000000000002
2023-05-05T06:41:30.109Z,7.840000000000001
2023-05-05T06:44:25.677Z,7.9
2023-05-05T06:47:22.218Z,8.2
2023-05-05T06:50:17.788Z,8.66
2023-05-05T06:53:13.340Z,8.440000000000001
2023-05-05T06:56:08.863Z,7.2
2023-05-05T06:59:04.452Z,7.140000000000001
2023-05-05T07:02:00.037Z,7.739999999999999
2023-05-05T07:04:55.683Z,6.779999999999999
2023-05-05T07:07:52.181Z,7.280000000000001
2023-05-05T07:10:47.761Z,7.32
2023-05-05T07:13:43.258Z,7.159999999999999
2023-05-05T07:16:38.887Z,7.2
2023-05-05T07:19:37.395Z,7.460000000000001
2023-05-05T07:22:32.920Z,6.32
2023-05-05T07:25:28.536Z,6.659999999999999
2023-05-05T07:28:24.101Z,6.779999999999999
2023-05-05T07:31:21.632Z,7.220000000000001
2023-05-05T07:34:17.166Z,7.9
2023-05-05T07:37:13.745Z,6.4
2023-05-05T07:40:10.678Z,7.08
2023-05-05T07:43:05.882Z,6.0600000000000005
2023-05-05T07:46:01.498Z,6.44
2023-05-05T07:48:57.993Z,5.960000000000001
2023-05-05T07:51:55.529Z,6.540000000000001
2023-05-05T07:54:51.100Z,5.92
2023-05-05T07:57:47.677Z,6.38
2023-05-05T08:00:45.226Z,5.5600000000000005
2023-05-05T08:03:40.898Z,5.720000000000001
2023-05-05T08:06:39.348Z,5.82
2023-05-05T08:09:35.902Z,5.88
2023-05-05T08:12:32.473Z,6.779999999999999
2023-05-05T08:15:28.030Z,6.540000000000001
2023-05-05T08:18:24.634Z,7.12
2023-05-05T08:21:21.153Z,7.4799999999999995
2023-05-05T08:24:16.702Z,6.82
2023-05-05T08:27:13.274Z,6.18
2023-05-05T08:30:09.859Z,6
2023-05-05T08:33:05.430Z,6.9399999999999995
2023-05-05T08:36:00.944Z,7.260000000000001
2023-05-05T08:38:56.529Z,6.220000000000001
2023-05-05T08:41:53.021Z,6.1
2023-05-05T08:44:48.632Z,7.0600000000000005
2023-05-05T08:47:47.176Z,6.659999999999999
2023-05-05T08:50:47.713Z,6.26
2023-05-05T08:53:52.240Z,5.38
2023-05-05T08:56:50.868Z,6.56
2023-05-05T08:59:48.335Z,6.44
2023-05-05T09:02:47.048Z,6.68
2023-05-05T09:05:43.484Z,6.9
2023-05-05T09:08:41.050Z,6.719999999999999
2023-05-05T09:11:37.613Z,6.88
2023-05-05T09:14:33.205Z,5.82
2023-05-05T09:17:29.728Z,5.88
2023-05-05T09:20:34.246Z,6.279999999999999
2023-05-05T09:23:29.804Z,6.36
2023-05-05T09:26:32.389Z,5.680000000000001
2023-05-05T09:29:28.919Z,5.840000000000001
2023-05-05T09:32:47.518Z,6.5600000000000005
2023-05-05T09:35:48.984Z,6
2023-05-05T09:38:52.520Z,5.92
2023-05-05T09:41:53.078Z,5.9
2023-05-05T09:44:48.645Z,4.98
2023-05-05T09:47:46.271Z,6.24
2023-05-05T09:50:43.849Z,5.44
2023-05-05T09:53:42.349Z,5.720000000000001
2023-05-05T09:56:39.873Z,6.140000000000001
2023-05-05T09:59:47.380Z,5.92
2023-05-05T10:02:47.973Z,5.8
2023-05-05T10:05:50.605Z,5.74
2023-05-05T10:08:51.040Z,4.9799999999999995
2023-05-05T10:11:47.567Z,4.88
2023-05-05T10:14:50.068Z,3.8
2023-05-05T10:17:54.277Z,4.2
2023-05-05T10:20:55.194Z,4.5
2023-05-05T10:23:57.798Z,4.7
2023-05-05T10:26:57.338Z,4.7
2023-05-05T10:30:02.810Z,4.339999999999999
2023-05-05T10:33:22.211Z,4.66
2023-05-05T10:36:08.927Z,4.38
2023-05-05T10:39:09.538Z,4.14
2023-05-05T10:42:06.053Z,4.959999999999999
2023-05-05T10:45:04.578Z,5.26
2023-05-05T10:48:04.234Z,5.32
2023-05-05T10:51:11.698Z,4.46
2023-05-05T10:54:16.214Z,4.3
2023-05-05T10:57:14.789Z,4.3
2023-05-05T11:00:18.310Z,4.4
2023-05-05T11:03:19.948Z,4.0200000000000005
2023-05-05T11:06:20.422Z,4.5200000000000005
2023-05-05T11:09:20.958Z,4.2
2023-05-05T11:12:27.498Z,4.46
2023-05-05T11:15:37.022Z,4.32
2023-05-05T11:18:35.592Z,4.54
2023-05-05T11:21:44.915Z,4.159999999999999
2023-05-05T11:24:46.675Z,3.56
2023-05-05T11:27:54.192Z,4.68
2023-05-05T11:31:00.778Z,4.14
2023-05-05T11:34:07.265Z,3.84
2023-05-05T11:37:11.767Z,3.72
2023-05-05T11:40:19.340Z,3.9599999999999995
2023-05-05T11:43:18.854Z,3.2199999999999998
2023-05-05T11:46:16.473Z,3.5799999999999996
2023-05-05T11:49:23.973Z,3.9
2023-05-05T11:52:27.544Z,4.619999999999999
2023-05-05T11:55:23.058Z,3.9
2023-05-05T11:58:18.650Z,4.220000000000001
2023-05-05T12:01:14.188Z,3.2399999999999998
2023-05-05T12:04:11.912Z,3.94
2023-05-05T12:07:07.276Z,3.66
2023-05-05T12:10:02.856Z,3.02
2023-05-05T12:13:11.475Z,3.46
2023-05-05T12:16:08.978Z,3.3600000000000003
2023-05-05T12:19:05.515Z,3
2023-05-05T12:22:01.074Z,3.3
2023-05-05T12:24:57.628Z,2.7600000000000002
2023-05-05T12:27:54.137Z,4.6
2023-05-05T12:30:56.788Z,2.72
2023-05-05T12:33:53.301Z,2.66
2023-05-05T12:36:49.805Z,3.5200000000000005
2023-05-05T12:39:45.375Z,3.2800000000000002
2023-05-05T12:42:40.962Z,3.02
2023-05-05T12:45:37.556Z,2.66
2023-05-05T12:48:34.099Z,3.3
2023-05-05T12:51:35.654Z,3.0799999999999996
2023-05-05T12:54:40.200Z,3.0599999999999996
2023-05-05T12:57:46.714Z,3.28
2023-05-05T13:00:46.296Z,3.16
2023-05-05T13:03:46.819Z,3.5799999999999996
2023-05-05T13:06:58.338Z,2.5799999999999996
2023-05-05T13:10:00.892Z,3
2023-05-05T13:12:57.483Z,2.9
2023-05-05T13:15:53.048Z,3.1800000000000006
2023-05-05T13:18:49.576Z,3.3
2023-05-05T13:21:45.102Z,3.0799999999999996
2023-05-05T13:24:50.988Z,3.3
2023-05-05T13:27:41.245Z,2.92
2023-05-05T13:30:37.782Z,2.7600000000000002
2023-05-05T13:33:35.372Z,3.1
2023-05-05T13:36:30.914Z,3.16
2023-05-05T13:39:26.445Z,2.38
2023-05-05T13:42:22.047Z,2.72
2023-05-05T13:45:19.581Z,3.1
2023-05-05T13:48:16.138Z,2.82
2023-05-05T13:51:11.749Z,2.88
2023-05-05T13:54:07.286Z,2.88
2023-05-05T13:57:02.824Z,2.8600000000000003
2023-05-05T13:59:58.401Z,3.16
2023-05-05T14:02:54.974Z,3.5200000000000005
2023-05-05T14:05:51.536Z,2.92
2023-05-05T14:08:47.065Z,3.44
2023-05-05T14:11:42.656Z,2.92
2023-05-05T14:14:38.196Z,2.6399999999999997
2023-05-05T14:17:33.774Z,2.4799999999999995
2023-05-05T14:20:29.384Z,3.1799999999999997
2023-05-05T14:23:25.889Z,2.9799999999999995
2023-05-05T14:26:21.466Z,3.2
2023-05-05T14:29:18.048Z,2.7400000000000007
2023-05-05T14:32:13.652Z,3.4
2023-05-05T14:35:09.263Z,3.12
2023-05-05T14:38:04.744Z,2.86
2023-05-05T14:41:02.224Z,2.8000000000000003
2023-05-05T14:43:58.804Z,3.44
2023-05-05T14:46:54.367Z,3.2600000000000002
2023-05-05T14:49:50.947Z,2.6799999999999997
2023-05-05T14:52:47.466Z,3.1
2023-05-05T14:55:44.051Z,3.22
2023-05-05T14:58:39.614Z,49.6
2023-05-05T15:01:36.229Z,153.66000000000003
2023-05-05T15:04:31.724Z,34.980000000000004
2023-05-05T15:07:29.278Z,10.02
2023-05-05T15:10:25.833Z,7.639999999999999
2023-05-05T15:13:22.444Z,4.9799999999999995
2023-05-05T15:16:17.980Z,4.42
2023-05-05T15:19:13.481Z,4.7
2023-05-05T15:22:09.047Z,3.4
2023-05-05T15:25:08.987Z,2.96
2023-05-05T15:28:05.201Z,3.0599999999999996
2023-05-05T15:31:01.791Z,3.8200000000000003
2023-05-05T15:33:57.305Z,3.04
2023-05-05T15:36:56.868Z,2.8600000000000003
2023-05-05T15:39:54.406Z,2.98
2023-05-05T15:42:50.998Z,3.3200000000000003
2023-05-05T15:45:46.578Z,3.02
2023-05-05T15:48:42.108Z,2.6399999999999997
2023-05-05T15:51:37.830Z,2.82
2023-05-05T15:54:33.244Z,3.2400000000000007
2023-05-05T15:57:28.798Z,2.7800000000000002
2023-05-05T16:00:25.350Z,2.7600000000000002
2023-05-05T16:03:20.973Z,3.3600000000000003
2023-05-05T16:06:16.477Z,3.1399999999999997
2023-05-05T16:09:12.010Z,3.1800000000000006
2023-05-05T16:12:08.568Z,2.88
2023-05-05T16:15:05.144Z,2.6
2023-05-05T16:18:00.718Z,3.04
2023-05-05T16:20:56.276Z,2.66
2023-05-05T16:23:51.835Z,2.7400000000000007
2023-05-05T16:26:48.355Z,2.72
2023-05-05T16:29:43.962Z,2.8600000000000003
2023-05-05T16:32:39.518Z,2.6800000000000006
2023-05-05T16:35:36.107Z,3.0799999999999996
2023-05-05T16:38:31.627Z,3.1800000000000006
2023-05-05T16:41:28.222Z,3.2400000000000007
2023-05-05T16:44:28.775Z,3.4200000000000004
2023-05-05T16:47:25.377Z,3.2600000000000002
2023-05-05T16:50:20.842Z,3.1
2023-05-05T16:53:16.418Z,2.82
2023-05-05T16:56:12.967Z,2.92
2023-05-05T16:59:08.583Z,2.8200000000000003
2023-05-05T17:02:06.112Z,2.54
2023-05-05T17:05:01.694Z,3.1800000000000006
2023-05-05T17:07:57.235Z,2.96
2023-05-05T17:10:52.796Z,3.8
2023-05-05T17:13:48.293Z,8.540000000000001
2023-05-05T17:16:43.915Z,12.179999999999998
2023-05-05T17:19:39.497Z,15.459999999999999
2023-05-05T17:22:36.045Z,15.780000000000001
2023-05-05T17:25:31.607Z,14.3
2023-05-05T17:28:27.144Z,11.8
2023-05-05T17:31:22.778Z,9
2023-05-05T17:34:18.297Z,6.92
2023-05-05T17:37:13.861Z,6.359999999999999
2023-05-05T17:40:10.424Z,5.66
2023-05-05T17:43:06.959Z,5
2023-05-05T17:46:02.636Z,4.52
2023-05-05T17:48:58.114Z,5.3
2023-05-05T17:51:53.598Z,6.720000000000001
2023-05-05T17:54:50.236Z,7.06
2023-05-05T17:57:46.734Z,5.68
2023-05-05T18:00:42.326Z,6.18
2023-05-05T18:03:40.679Z,6.18
2023-05-05T18:06:36.408Z,5.74
2023-05-05T18:09:32.017Z,5.5
2023-05-05T18:12:27.511Z,5.839999999999999
2023-05-05T18:15:23.097Z,5.660000000000001
2023-05-05T18:18:18.709Z,6.340000000000001
2023-05-05T18:21:15.242Z,8.679999999999998
2023-05-05T18:24:19.490Z,13.6
2023-05-05T18:27:12.349Z,15.38
2023-05-05T18:30:08.908Z,17.6
2023-05-05T18:33:04.560Z,15.560000000000002
2023-05-05T18:36:01.075Z,17.660000000000004
2023-05-05T18:38:56.572Z,14.720000000000002
2023-05-05T18:41:53.149Z,14.7
2023-05-05T18:44:49.712Z,15.239999999999998
2023-05-05T18:47:45.336Z,24.639999999999997
2023-05-05T18:50:41.828Z,34.12
2023-05-05T18:53:37.395Z,42.339999999999996
2023-05-05T18:56:32.979Z,36.6
2023-05-05T18:59:28.486Z,29.96
2023-05-05T19:02:24.065Z,26.7
2023-05-05T19:05:20.656Z,25.659999999999997
2023-05-05T19:08:16.202Z,29.82
2023-05-05T19:11:14.804Z,26.22
2023-05-05T19:14:11.278Z,29.54
2023-05-05T19:17:06.943Z,26.339999999999996
2023-05-05T19:20:02.391Z,22.720000000000002
2023-05-05T19:23:02.979Z,22.240000000000002
2023-05-05T19:25:58.545Z,20.18
2023-05-05T19:28:55.117Z,16.46
2023-05-05T19:31:50.873Z,13.2
2023-05-05T19:34:46.232Z,14.320000000000002
2023-05-05T19:37:41.797Z,13.959999999999999
2023-05-05T19:40:38.303Z,14.280000000000001
2023-05-05T19:43:33.905Z,11.84
2023-05-05T19:46:29.575Z,13.4
2023-05-05T19:49:25.003Z,14.180000000000001
2023-05-05T19:52:22.684Z,14.38
2023-05-05T19:55:18.159Z,15.059999999999999
2023-05-05T19:58:13.704Z,12.459999999999999
2023-05-05T20:01:09.342Z,10.34
2023-05-05T20:04:04.802Z,9.940000000000001
2023-05-05T20:07:00.380Z,9.059999999999999
2023-05-05T20:09:56.178Z,13.76
2023-05-05T20:12:53.575Z,17.979999999999997
2023-05-05T20:15:51.069Z,14.5
2023-05-05T20:18:46.666Z,14.040000000000001
2023-05-05T20:21:42.199Z,13.3
2023-05-05T20:24:38.786Z,12.84
2023-05-05T20:27:36.016Z,11.459999999999999
2023-05-05T20:30:32.863Z,10.780000000000001
2023-05-05T20:33:29.457Z,10.919999999999998
2023-05-05T20:36:26.009Z,11.379999999999999
2023-05-05T20:39:23.510Z,11.6
2023-05-05T20:42:19.121Z,13.9
2023-05-05T20:45:15.685Z,12.440000000000001
2023-05-05T20:48:11.630Z,10.66
2023-05-05T20:51:08.787Z,11.459999999999999
2023-05-05T20:54:05.417Z,9.64
2023-05-05T20:57:02.921Z,8.7
2023-05-05T20:59:59.460Z,7.82
2023-05-05T21:02:57.261Z,8.16
2023-05-05T21:05:52.632Z,8.3
2023-05-05T21:08:48.155Z,10.7
2023-05-05T21:11:43.684Z,11.16
2023-05-05T21:14:42.228Z,12.64
2023-05-05T21:17:37.844Z,14.179999999999998
2023-05-05T21:20:35.396Z,12.919999999999998
2023-05-05T21:23:30.942Z,12.24
2023-05-05T21:26:26.528Z,13.26
2023-05-05T21:29:24.065Z,14.16
2023-05-05T21:32:19.731Z,13.979999999999999
2023-05-05T21:35:15.186Z,15.180000000000001
2023-05-05T21:38:11.750Z,14.420000000000002
2023-05-05T21:41:07.304Z,13.9
2023-05-05T21:44:02.858Z,13.36
2023-05-05T21:46:59.437Z,13.34
2023-05-05T21:49:54.992Z,18.68
2023-05-05T21:52:51.514Z,19
2023-05-05T21:55:48.067Z,16.18
2023-05-05T21:58:44.638Z,13.319999999999999
2023-05-05T22:01:40.330Z,15.819999999999999
2023-05-05T22:04:35.776Z,13.440000000000001
2023-05-05T22:07:33.054Z,14.76
2023-05-05T22:10:28.930Z,13.580000000000002
2023-05-05T22:13:24.485Z,13.14
2023-05-05T22:16:21.089Z,14.36
2023-05-05T22:19:17.583Z,13.26
2023-05-05T22:22:13.122Z,12.36
2023-05-05T22:25:09.897Z,12.719999999999999
2023-05-05T22:28:05.269Z,13.180000000000001
2023-05-05T22:31:01.803Z,13.64
2023-05-05T22:33:58.390Z,13.02
2023-05-05T22:36:55.963Z,13.66
2023-05-05T22:39:52.485Z,12.2
2023-05-05T22:42:48.033Z,11.28
2023-05-05T22:45:45.629Z,12.5
2023-05-05T22:48:41.149Z,11.72
2023-05-05T22:51:37.753Z,12.080000000000002
2023-05-05T22:54:33.289Z,10.8
2023-05-05T22:57:28.842Z,10.919999999999998
2023-05-05T23:00:25.441Z,10.26
2023-05-05T23:03:20.969Z,10.5
2023-05-05T23:06:16.529Z,11.639999999999999
2023-05-05T23:09:13.099Z,9.719999999999999
2023-05-05T23:12:08.637Z,10.319999999999999
2023-05-05T23:15:05.276Z,9.5
2023-05-05T23:18:00.821Z,10.16
2023-05-05T23:20:56.354Z,9.860000000000001
2023-05-05T23:23:51.932Z,8.4
2023-05-05T23:26:47.477Z,8.940000000000001
2023-05-05T23:29:43.026Z,9.8
2023-05-05T23:32:38.571Z,9.440000000000001
2023-05-05T23:35:34.100Z,9.24
2023-05-05T23:38:29.714Z,8.66
2023-05-05T23:41:25.273Z,9.18
2023-05-05T23:44:20.823Z,10.66
2023-05-05T23:47:16.407Z,9.959999999999999
2023-05-05T23:50:11.952Z,11.279999999999998
2023-05-05T23:53:07.553Z,11.940000000000001
2023-05-05T23:56:03.030Z,10.28
2023-05-05T23:58:58.610Z,9.540000000000001
